sensor_id;sensor_type;location;lat;lon;timestamp;pressure;altitude;pressure_sealevel;temperature;humidity
26839;BME280;40088;51.214;6.786;2022-11-20T00:07:10;100928.50;;;16.98;51.57
26839;BME280;40088;51.214;6.786;2022-11-20T00:17:11;100927.66;;;16.97;51.41
26839;BME280;40088;51.214;6.786;2022-11-20T00:27:11;100931.47;;;16.96;51.67
26839;BME280;40088;51.214;6.786;2022-11-20T00:37:11;100925.13;;;16.96;51.61
26839;BME280;40088;51.214;6.786;2022-11-20T00:47:11;100924.06;;;16.97;51.42
26839;BME280;40088;51.214;6.786;2022-11-20T00:57:12;100920.53;;;17.03;50.96
26839;BME280;40088;51.214;6.786;2022-11-20T01:07:12;100911.69;;;17.07;51.57
26839;BME280;40088;51.214;6.786;2022-11-20T01:17:12;100911.28;;;17.10;52.16
26839;BME280;40088;51.214;6.786;2022-11-20T01:27:12;100904.09;;;17.09;52.73
26839;BME280;40088;51.214;6.786;2022-11-20T01:37:13;100910.44;;;17.10;53.06
26839;BME280;40088;51.214;6.786;2022-11-20T01:47:17;100903.03;;;17.10;53.34
26839;BME280;40088;51.214;6.786;2022-11-20T01:57:20;100898.56;;;17.09;53.51
26839;BME280;40088;51.214;6.786;2022-11-20T02:07:23;100884.81;;;17.09;53.81
26839;BME280;40088;51.214;6.786;2022-11-20T02:17:24;100887.56;;;17.09;54.00
26839;BME280;40088;51.214;6.786;2022-11-20T02:27:25;100860.44;;;17.06;54.23
26839;BME280;40088;51.214;6.786;2022-11-20T02:37:30;100859.59;;;17.06;54.50
26839;BME280;40088;51.214;6.786;2022-11-20T02:47:31;100870.41;;;17.07;54.45
26839;BME280;40088;51.214;6.786;2022-11-20T02:57:32;100864.22;;;17.05;54.54
26839;BME280;40088;51.214;6.786;2022-11-20T03:07:32;100861.28;;;17.07;54.53
26839;BME280;40088;51.214;6.786;2022-11-20T03:17:32;100859.59;;;17.06;54.26
26839;BME280;40088;51.214;6.786;2022-11-20T03:27:33;100863.38;;;17.05;54.47
26839;BME280;40088;51.214;6.786;2022-11-20T03:37:34;100865.94;;;17.06;54.58
26839;BME280;40088;51.214;6.786;2022-11-20T03:47:34;100848.56;;;17.06;54.62
26839;BME280;40088;51.214;6.786;2022-11-20T03:57:35;100856.16;;;17.04;54.70
26839;BME280;40088;51.214;6.786;2022-11-20T04:07:35;100846.00;;;17.04;54.70
26839;BME280;40088;51.214;6.786;2022-11-20T04:17:35;100841.53;;;17.03;54.80
26839;BME280;40088;51.214;6.786;2022-11-20T04:27:36;100850.66;;;17.04;54.72
26839;BME280;40088;51.214;6.786;2022-11-20T04:37:36;100839.84;;;17.02;54.72
26839;BME280;40088;51.214;6.786;2022-11-20T04:47:36;100851.91;;;17.01;54.96
26839;BME280;40088;51.214;6.786;2022-11-20T04:57:36;100843.66;;;17.01;54.86
26839;BME280;40088;51.214;6.786;2022-11-20T05:07:37;100843.66;;;17.01;55.10
26839;BME280;40088;51.214;6.786;2022-11-20T05:17:37;100847.25;;;17.02;54.97
26839;BME280;40088;51.214;6.786;2022-11-20T05:27:37;100847.44;;;17.00;55.10
26839;BME280;40088;51.214;6.786;2022-11-20T05:37:37;100842.97;;;16.99;55.10
26839;BME280;40088;51.214;6.786;2022-11-20T05:47:38;100841.75;;;17.02;55.00
26839;BME280;40088;51.214;6.786;2022-11-20T05:57:38;100836.41;;;17.00;55.10
26839;BME280;40088;51.214;6.786;2022-11-20T06:07:38;100841.06;;;17.00;55.20
26839;BME280;40088;51.214;6.786;2022-11-20T06:17:38;100834.72;;;16.99;55.40
26839;BME280;40088;51.214;6.786;2022-11-20T06:27:39;100833.00;;;16.98;55.39
26839;BME280;40088;51.214;6.786;2022-11-20T06:37:39;100843.19;;;16.98;55.67
26839;BME280;40088;51.214;6.786;2022-11-20T06:47:39;100840.41;;;16.98;55.41
26839;BME280;40088;51.214;6.786;2022-11-20T06:57:39;100842.31;;;16.97;55.38
26839;BME280;40088;51.214;6.786;2022-11-20T07:07:40;100854.19;;;16.98;55.32
26839;BME280;40088;51.214;6.786;2022-11-20T07:17:40;100867.94;;;16.98;55.45
26839;BME280;40088;51.214;6.786;2022-11-20T07:27:40;100860.75;;;16.97;55.42
26839;BME280;40088;51.214;6.786;2022-11-20T07:37:41;100872.59;;;16.97;55.09
26839;BME280;40088;51.214;6.786;2022-11-20T07:47:41;100856.28;;;16.96;55.33
26839;BME280;40088;51.214;6.786;2022-11-20T07:57:41;100859.91;;;16.96;55.32
26839;BME280;40088;51.214;6.786;2022-11-20T08:07:43;100838.91;;;16.95;55.51
26839;BME280;40088;51.214;6.786;2022-11-20T08:17:43;100840.78;;;16.95;55.56
26839;BME280;40088;51.214;6.786;2022-11-20T08:27:44;100854.56;;;16.95;55.54
26839;BME280;40088;51.214;6.786;2022-11-20T08:37:47;100855.63;;;16.93;55.55
26839;BME280;40088;51.214;6.786;2022-11-20T08:47:47;100852.00;;;16.93;55.66
26839;BME280;40088;51.214;6.786;2022-11-20T08:57:48;100865.78;;;16.93;55.64
26839;BME280;40088;51.214;6.786;2022-11-20T09:07:49;100860.28;;;16.93;55.60
26839;BME280;40088;51.214;6.786;2022-11-20T09:17:54;100843.75;;;16.93;55.46
26839;BME280;40088;51.214;6.786;2022-11-20T09:27:58;100830.00;;;16.93;55.59
26839;BME280;40088;51.214;6.786;2022-11-20T09:38:04;100826.19;;;16.94;55.62
26839;BME280;40088;51.214;6.786;2022-11-20T09:48:22;100827.88;;;16.95;55.51
26839;BME280;40088;51.214;6.786;2022-11-20T09:58:33;100826.19;;;16.94;55.54
26839;BME280;40088;51.214;6.786;2022-11-20T10:08:47;100832.75;;;16.93;55.56
26839;BME280;40088;51.214;6.786;2022-11-20T10:19:18;100818.13;;;16.92;55.79
26839;BME280;40088;51.214;6.786;2022-11-20T10:29:29;100792.50;;;16.92;55.80
26839;BME280;40088;51.214;6.786;2022-11-20T10:39:44;100779.59;;;16.92;55.69
26839;BME280;40088;51.214;6.786;2022-11-20T10:49:53;100758.75;;;17.05;55.44
26839;BME280;40088;51.214;6.786;2022-11-20T11:00:05;100745.75;;;17.20;54.75
26839;BME280;40088;51.214;6.786;2022-11-20T11:10:24;100730.38;;;17.04;54.99
26839;BME280;40088;51.214;6.786;2022-11-20T11:20:26;100712.94;;;16.97;54.78
26839;BME280;40088;51.214;6.786;2022-11-20T11:30:28;100700.63;;;16.93;54.52
26839;BME280;40088;51.214;6.786;2022-11-20T11:40:31;100690.19;;;16.88;54.60
26839;BME280;40088;51.214;6.786;2022-11-20T11:50:32;100664.78;;;16.86;54.39
26839;BME280;40088;51.214;6.786;2022-11-20T12:00:34;100634.69;;;16.85;54.50
26839;BME280;40088;51.214;6.786;2022-11-20T12:10:46;100630.25;;;16.84;54.46
26839;BME280;40088;51.214;6.786;2022-11-20T12:21:21;100618.59;;;16.82;54.34
26839;BME280;40088;51.214;6.786;2022-11-20T12:31:55;100606.75;;;16.81;54.30
26839;BME280;40088;51.214;6.786;2022-11-20T12:52:48;100594.88;;;16.81;53.97
26839;BME280;40088;51.214;6.786;2022-11-20T13:34:25;100502.88;;;16.68;52.97
26839;BME280;40088;51.214;6.786;2022-11-20T13:44:48;100494.44;;;16.70;52.57
26839;BME280;40088;51.214;6.786;2022-11-20T14:05:20;100457.06;;;16.76;51.88
26839;BME280;40088;51.214;6.786;2022-11-20T14:15:32;100438.44;;;16.78;51.76
26839;BME280;40088;51.214;6.786;2022-11-20T14:25:33;100405.41;;;16.78;51.95
26839;BME280;40088;51.214;6.786;2022-11-20T14:35:45;100404.16;;;16.80;51.87
26839;BME280;40088;51.214;6.786;2022-11-20T14:45:55;100391.25;;;16.81;52.01
26839;BME280;40088;51.214;6.786;2022-11-20T14:56:01;100360.56;;;16.84;52.04
26839;BME280;40088;51.214;6.786;2022-11-20T15:06:02;100355.06;;;16.84;51.98
26839;BME280;40088;51.214;6.786;2022-11-20T15:16:17;100333.69;;;16.86;52.04
26839;BME280;40088;51.214;6.786;2022-11-20T15:26:23;100325.44;;;16.86;52.07
26839;BME280;40088;51.214;6.786;2022-11-20T15:36:24;100324.59;;;16.85;52.13
26839;BME280;40088;51.214;6.786;2022-11-20T15:46:27;100295.19;;;16.86;52.32
26839;BME280;40088;51.214;6.786;2022-11-20T15:56:28;100288.63;;;16.87;52.37
26839;BME280;40088;51.214;6.786;2022-11-20T16:06:28;100273.78;;;16.88;52.39
26839;BME280;40088;51.214;6.786;2022-11-20T16:16:32;100261.09;;;16.87;52.46
26839;BME280;40088;51.214;6.786;2022-11-20T16:26:33;100240.78;;;16.88;52.53
26839;BME280;40088;51.214;6.786;2022-11-20T16:36:33;100216.22;;;16.86;52.77
26839;BME280;40088;51.214;6.786;2022-11-20T16:46:34;100221.50;;;16.88;52.64
26839;BME280;40088;51.214;6.786;2022-11-20T16:56:34;100185.72;;;16.88;53.06
26839;BME280;40088;51.214;6.786;2022-11-20T17:06:37;100156.53;;;16.87;53.06
26839;BME280;40088;51.214;6.786;2022-11-20T17:16:39;100135.34;;;16.87;53.05
26839;BME280;40088;51.214;6.786;2022-11-20T17:26:41;100109.75;;;16.87;53.07
26839;BME280;40088;51.214;6.786;2022-11-20T17:36:42;100075.03;;;16.86;53.11
26839;BME280;40088;51.214;6.786;2022-11-20T17:46:46;100061.91;;;16.88;53.22
26839;BME280;40088;51.214;6.786;2022-11-20T17:56:46;100048.97;;;16.88;53.27
26839;BME280;40088;51.214;6.786;2022-11-20T18:07:05;100037.13;;;16.88;53.54
26839;BME280;40088;51.214;6.786;2022-11-20T18:17:12;100033.31;;;16.89;53.43
26839;BME280;40088;51.214;6.786;2022-11-20T18:27:15;100024.00;;;16.90;53.45
26839;BME280;40088;51.214;6.786;2022-11-20T18:37:16;100001.13;;;16.89;53.51
26839;BME280;40088;51.214;6.786;2022-11-20T18:47:28;99980.41;;;16.87;53.79
26839;BME280;40088;51.214;6.786;2022-11-20T18:57:30;99981.88;;;16.89;53.61
26839;BME280;40088;51.214;6.786;2022-11-20T19:07:30;99957.31;;;16.88;53.90
26839;BME280;40088;51.214;6.786;2022-11-20T19:17:32;99954.56;;;16.88;53.78
26839;BME280;40088;51.214;6.786;2022-11-20T19:27:32;99911.63;;;16.87;53.92
26839;BME280;40088;51.214;6.786;2022-11-20T19:37:33;99905.88;;;16.88;53.93
26839;BME280;40088;51.214;6.786;2022-11-20T19:47:33;99908.63;;;16.88;53.95
26839;BME280;40088;51.214;6.786;2022-11-20T19:57:33;99914.97;;;16.89;54.14
26839;BME280;40088;51.214;6.786;2022-11-20T20:07:34;99918.59;;;16.89;54.15
26839;BME280;40088;51.214;6.786;2022-11-20T20:17:34;99938.69;;;16.90;54.37
26839;BME280;40088;51.214;6.786;2022-11-20T20:27:34;99943.34;;;16.89;54.35
26839;BME280;40088;51.214;6.786;2022-11-20T20:37:36;99951.81;;;16.88;54.41
26839;BME280;40088;51.214;6.786;2022-11-20T20:47:37;99954.34;;;16.89;54.51
26839;BME280;40088;51.214;6.786;2022-11-20T20:57:37;99968.97;;;16.90;54.55
26839;BME280;40088;51.214;6.786;2022-11-20T21:07:38;99989.28;;;16.89;54.67
26839;BME280;40088;51.214;6.786;2022-11-20T21:17:58;100003.88;;;16.89;54.67
26839;BME280;40088;51.214;6.786;2022-11-20T21:27:58;100021.88;;;16.92;54.53
26839;BME280;40088;51.214;6.786;2022-11-20T21:37:58;100023.56;;;16.93;54.68
26839;BME280;40088;51.214;6.786;2022-11-20T21:47:59;100020.22;;;16.91;54.68
26839;BME280;40088;51.214;6.786;2022-11-20T21:57:59;100012.97;;;16.90;54.66
26839;BME280;40088;51.214;6.786;2022-11-20T22:08:00;100028.47;;;16.91;54.66
26839;BME280;40088;51.214;6.786;2022-11-20T22:18:00;100032.25;;;16.90;54.79
26839;BME280;40088;51.214;6.786;2022-11-20T22:28:13;100030.78;;;16.87;54.91
26839;BME280;40088;51.214;6.786;2022-11-20T22:38:13;100055.56;;;16.87;54.91
26839;BME280;40088;51.214;6.786;2022-11-20T22:48:13;100057.22;;;16.88;55.10
26839;BME280;40088;51.214;6.786;2022-11-20T22:58:13;100073.53;;;16.90;55.03
26839;BME280;40088;51.214;6.786;2022-11-20T23:08:14;100074.59;;;16.89;55.08
26839;BME280;40088;51.214;6.786;2022-11-20T23:18:14;100075.66;;;16.88;55.11
26839;BME280;40088;51.214;6.786;2022-11-20T23:28:14;100084.97;;;16.87;55.26
26839;BME280;40088;51.214;6.786;2022-11-20T23:38:14;100097.88;;;16.86;55.20
26839;BME280;40088;51.214;6.786;2022-11-20T23:48:16;100101.47;;;16.87;55.13
26839;BME280;40088;51.214;6.786;2022-11-20T23:58:17;100130.06;;;16.86;55.43
